createdAt,value
2022-10-07T00:01:19.082Z,6.02
2022-10-07T00:06:23.288Z,6.03
2022-10-07T00:11:28.243Z,6.03
2022-10-07T00:16:37.662Z,5.99
2022-10-07T00:21:41.021Z,5.96
2022-10-07T00:26:44.541Z,5.91
2022-10-07T00:31:47.444Z,5.83
2022-10-07T00:36:51.113Z,5.74
2022-10-07T00:41:53.957Z,5.68
2022-10-07T00:47:03.462Z,5.63
2022-10-07T00:52:06.492Z,5.54
2022-10-07T00:57:10.074Z,5.48
2022-10-07T01:02:12.918Z,5.41
2022-10-07T01:07:18.414Z,5.34
2022-10-07T01:12:30.221Z,5.25
2022-10-07T01:17:39.625Z,5.17
2022-10-07T01:22:54.771Z,5.11
2022-10-07T01:28:13.488Z,5.05
2022-10-07T01:33:50.920Z,4.99
2022-10-07T01:39:02.631Z,4.90
2022-10-07T01:44:07.443Z,4.83
2022-10-07T01:49:10.809Z,4.79
2022-10-07T01:54:38.924Z,4.78
2022-10-07T02:00:10.398Z,4.71
2022-10-07T02:05:21.939Z,4.64
2022-10-07T02:10:36.855Z,4.64
2022-10-07T02:15:48.078Z,4.59
2022-10-07T02:20:53.141Z,4.50
2022-10-07T02:25:56.565Z,4.39
2022-10-07T02:31:03.727Z,4.36
2022-10-07T02:36:16.819Z,4.36
2022-10-07T02:41:32.898Z,4.33
2022-10-07T02:46:54.584Z,4.33
2022-10-07T02:52:05.607Z,4.29
2022-10-07T02:57:11.108Z,4.25
2022-10-07T03:02:20.366Z,4.27
2022-10-07T03:07:23.479Z,4.27
2022-10-07T03:12:26.201Z,4.25
2022-10-07T03:17:29.096Z,4.22
2022-10-07T03:22:31.810Z,4.23
2022-10-07T03:27:34.560Z,4.20
2022-10-07T03:32:39.539Z,4.17
2022-10-07T03:37:42.747Z,4.12
2022-10-07T03:42:45.851Z,4.02
2022-10-07T03:47:48.551Z,3.93
2022-10-07T03:52:51.305Z,3.93
2022-10-07T03:57:59.337Z,3.88
2022-10-07T04:03:02.731Z,3.81
2022-10-07T04:08:05.804Z,3.81
2022-10-07T04:13:08.461Z,3.79
2022-10-07T04:18:11.612Z,3.79
2022-10-07T04:23:15.415Z,3.80
2022-10-07T04:28:21.158Z,3.74
2022-10-07T04:33:24.899Z,3.62
2022-10-07T04:38:28.587Z,3.52
2022-10-07T04:43:34.239Z,3.43
2022-10-07T04:48:36.973Z,3.37
2022-10-07T04:53:40.325Z,3.33
2022-10-07T04:58:42.997Z,3.31
2022-10-07T05:03:45.682Z,3.27
2022-10-07T05:08:49.993Z,3.28
2022-10-07T05:13:52.653Z,3.33
2022-10-07T05:18:55.966Z,3.35
2022-10-07T05:23:59.107Z,3.37
2022-10-07T05:29:01.880Z,3.43
2022-10-07T05:34:04.821Z,3.49
2022-10-07T05:39:08.138Z,3.58
2022-10-07T05:44:10.849Z,3.68
2022-10-07T05:49:13.544Z,3.86
2022-10-07T05:54:16.444Z,4.08
2022-10-07T05:59:20.209Z,4.31
2022-10-07T06:04:23.480Z,4.55
2022-10-07T06:09:44.518Z,4.77
2022-10-07T06:14:47.377Z,5.00
2022-10-07T06:19:50.210Z,5.25
2022-10-07T06:24:57.542Z,5.53
2022-10-07T06:30:00.559Z,5.80
2022-10-07T06:35:03.791Z,6.09
2022-10-07T06:40:07.062Z,6.37
2022-10-07T06:45:10.948Z,6.62
2022-10-07T06:50:13.849Z,6.88
2022-10-07T06:55:17.462Z,7.17
2022-10-07T07:00:20.128Z,7.44
2022-10-07T07:05:22.795Z,7.72
2022-10-07T07:10:25.580Z,7.99
2022-10-07T07:15:28.870Z,8.25
2022-10-07T07:20:37.466Z,8.55
2022-10-07T07:25:40.701Z,8.80
2022-10-07T07:30:43.541Z,9.04
2022-10-07T07:35:46.307Z,9.29
2022-10-07T07:40:49.010Z,9.56
2022-10-07T07:45:51.811Z,9.77
2022-10-07T07:50:54.611Z,9.99
2022-10-07T07:55:57.905Z,10.20
2022-10-07T08:01:09.485Z,10.40
2022-10-07T08:12:09.841Z,10.91
2022-10-07T08:17:18.551Z,11.15
2022-10-07T08:22:21.582Z,11.37
2022-10-07T08:27:24.387Z,11.58
2022-10-07T08:32:29.226Z,11.77
2022-10-07T08:37:45.442Z,11.98
2022-10-07T08:42:49.774Z,12.17
2022-10-07T08:47:53.470Z,12.37
2022-10-07T08:53:01.764Z,12.57
2022-10-07T08:58:21.390Z,12.68
2022-10-07T09:03:27.220Z,12.82
2022-10-07T09:08:37.001Z,13.00
2022-10-07T09:13:42.964Z,13.17
2022-10-07T09:18:50.988Z,13.28
2022-10-07T09:23:56.957Z,13.42
2022-10-07T09:28:59.599Z,13.58
2022-10-07T09:34:02.712Z,13.63
2022-10-07T09:39:24.029Z,13.70
2022-10-07T09:44:32.330Z,13.80
2022-10-07T09:49:41.971Z,13.93
2022-10-07T09:54:49.383Z,14.07
2022-10-07T10:00:13.831Z,14.20
2022-10-07T10:06:09.153Z,14.30
2022-10-07T10:11:17.826Z,14.38
2022-10-07T10:16:29.893Z,14.44
2022-10-07T10:21:42.438Z,14.53
2022-10-07T10:27:26.442Z,14.60
2022-10-07T10:33:22.990Z,14.66
2022-10-07T10:38:39.428Z,14.69
2022-10-07T10:44:11.928Z,14.79
2022-10-07T10:49:56.475Z,14.93
2022-10-07T10:55:37.003Z,15.05
2022-10-07T11:00:46.963Z,15.17
2022-10-07T11:05:55.365Z,15.22
2022-10-07T11:11:09.386Z,15.26
2022-10-07T11:16:52.290Z,15.36
2022-10-07T11:21:57.736Z,15.40
2022-10-07T11:27:23.808Z,15.44
2022-10-07T11:32:56.175Z,15.44
2022-10-07T11:38:14.709Z,15.53
2022-10-07T11:43:35.706Z,15.62
2022-10-07T11:48:50.132Z,15.69
2022-10-07T11:54:03.053Z,15.71
2022-10-07T11:59:07.529Z,15.72
2022-10-07T12:04:53.470Z,15.76
2022-10-07T12:09:59.345Z,15.83
2022-10-07T12:15:03.137Z,15.86
2022-10-07T12:20:44.955Z,15.83
2022-10-07T12:25:53.362Z,15.83
2022-10-07T12:31:00.239Z,15.92
2022-10-07T12:36:21.815Z,15.96
2022-10-07T12:41:45.432Z,15.99
2022-10-07T12:47:00.943Z,16.03
2022-10-07T12:52:30.363Z,16.08
2022-10-07T12:57:37.219Z,16.12
2022-10-07T13:03:03.478Z,16.15
2022-10-07T13:08:15.272Z,16.14
2022-10-07T13:13:41.022Z,16.18
2022-10-07T13:19:02.893Z,16.16
2022-10-07T13:24:06.307Z,16.16
2022-10-07T13:29:44.145Z,16.19
2022-10-07T13:34:46.805Z,16.18
2022-10-07T13:40:53.647Z,16.16
2022-10-07T13:45:57.956Z,15.96
2022-10-07T13:51:01.684Z,15.91
2022-10-07T13:56:22.367Z,15.86
2022-10-07T14:01:29.428Z,15.81
2022-10-07T14:06:56.195Z,15.84
2022-10-07T14:12:24.873Z,15.91
2022-10-07T14:17:55.205Z,16.00
2022-10-07T14:23:00.614Z,16.01
2022-10-07T14:28:18.033Z,16.07
2022-10-07T14:33:43.632Z,16.06
2022-10-07T14:38:49.122Z,16.08
2022-10-07T14:43:52.191Z,16.58
2022-10-07T14:48:55.016Z,17.03
2022-10-07T14:54:07.430Z,17.49
2022-10-07T14:59:14.998Z,17.80
2022-10-07T15:04:17.947Z,18.02
2022-10-07T15:09:20.729Z,18.29
2022-10-07T15:14:23.863Z,18.66
2022-10-07T15:19:26.560Z,18.94
2022-10-07T15:24:31.115Z,19.09
2022-10-07T15:29:33.790Z,18.89
2022-10-07T15:34:36.407Z,18.33
2022-10-07T15:39:39.881Z,18.08
2022-10-07T15:44:44.354Z,17.76
2022-10-07T15:49:47.072Z,16.98
2022-10-07T15:54:49.706Z,16.02
2022-10-07T15:59:54.773Z,15.10
2022-10-07T16:05:00.152Z,14.30
2022-10-07T16:10:03.782Z,13.56
2022-10-07T16:15:07.528Z,12.92
2022-10-07T16:20:11.624Z,12.34
2022-10-07T16:25:15.246Z,11.81
2022-10-07T16:30:36.600Z,11.33
2022-10-07T16:35:39.862Z,10.87
2022-10-07T16:40:52.692Z,10.52
2022-10-07T16:45:55.433Z,10.28
2022-10-07T16:50:59.399Z,10.13
2022-10-07T16:56:04.822Z,10.01
2022-10-07T17:01:11.091Z,9.85
2022-10-07T17:06:16.000Z,9.64
2022-10-07T17:11:30.689Z,9.41
2022-10-07T17:16:39.987Z,9.24
2022-10-07T17:21:44.257Z,9.11
2022-10-07T17:26:48.108Z,9.00
2022-10-07T17:31:51.277Z,8.84
2022-10-07T17:36:54.536Z,8.67
2022-10-07T17:41:57.682Z,8.51
2022-10-07T17:47:03.917Z,8.41
2022-10-07T17:52:06.694Z,8.31
2022-10-07T17:57:09.364Z,8.19
2022-10-07T18:02:12.360Z,8.05
2022-10-07T18:07:16.404Z,7.96
2022-10-07T18:12:38.049Z,7.88
2022-10-07T18:17:40.841Z,7.80
2022-10-07T18:22:44.269Z,7.69
2022-10-07T18:27:47.220Z,7.62
2022-10-07T18:32:50.133Z,7.57
2022-10-07T18:37:52.800Z,7.56
2022-10-07T18:42:55.445Z,7.51
2022-10-07T18:47:58.207Z,7.49
2022-10-07T18:53:00.842Z,7.47
2022-10-07T18:58:03.610Z,7.44
2022-10-07T19:03:06.297Z,7.37
2022-10-07T19:08:09.061Z,7.33
2022-10-07T19:13:31.921Z,7.31
2022-10-07T19:18:35.228Z,7.28
2022-10-07T19:23:38.850Z,7.24
2022-10-07T19:28:41.589Z,7.19
2022-10-07T19:33:46.304Z,7.16
2022-10-07T19:38:53.489Z,7.12
2022-10-07T19:43:57.660Z,7.06
2022-10-07T19:49:02.091Z,6.99
2022-10-07T19:54:10.150Z,6.90
2022-10-07T19:59:14.777Z,6.78
2022-10-07T20:04:20.880Z,6.68
2022-10-07T20:09:23.720Z,6.59
2022-10-07T20:14:26.571Z,6.52
2022-10-07T20:19:29.267Z,6.45
2022-10-07T20:24:32.055Z,6.40
2022-10-07T20:29:54.631Z,6.38
2022-10-07T20:34:57.307Z,6.42
2022-10-07T20:40:18.692Z,6.45
2022-10-07T20:45:21.533Z,6.45
2022-10-07T20:50:24.167Z,6.46
2022-10-07T20:55:26.920Z,6.51
2022-10-07T21:00:29.592Z,6.58
2022-10-07T21:05:32.267Z,6.61
2022-10-07T21:10:34.960Z,6.62
2022-10-07T21:15:37.634Z,6.64
2022-10-07T21:20:53.006Z,6.59
2022-10-07T21:26:05.472Z,6.53
2022-10-07T21:31:11.453Z,6.48
2022-10-07T21:36:17.298Z,6.43
2022-10-07T21:41:24.098Z,6.36
2022-10-07T21:46:28.612Z,6.32
2022-10-07T21:51:32.351Z,6.35
2022-10-07T21:56:35.154Z,6.37
2022-10-07T22:01:38.805Z,6.32
2022-10-07T22:07:00.250Z,6.29
2022-10-07T22:12:02.955Z,6.26
2022-10-07T22:17:05.618Z,6.25
2022-10-07T22:22:08.309Z,6.25
2022-10-07T22:27:10.963Z,6.35
2022-10-07T22:32:13.593Z,6.51
2022-10-07T22:37:16.204Z,6.67
2022-10-07T22:42:18.849Z,6.89
2022-10-07T22:47:21.474Z,7.13
2022-10-07T22:52:24.088Z,7.32
2022-10-07T22:57:28.944Z,7.46
2022-10-07T23:02:31.879Z,7.59
2022-10-07T23:07:34.656Z,7.73
2022-10-07T23:12:37.352Z,7.84
2022-10-07T23:17:39.962Z,7.95
2022-10-07T23:22:44.417Z,8.01
2022-10-07T23:27:48.210Z,8.10
2022-10-07T23:32:50.880Z,8.26
2022-10-07T23:37:56.686Z,8.42
2022-10-07T23:42:59.371Z,8.58
2022-10-07T23:48:02.490Z,8.78
2022-10-07T23:53:05.184Z,8.91
2022-10-07T23:58:08.497Z,8.99
